CheckWX is a tool to help pilots better visualize weather data.  It is not intended as a substitute for an official pre-flight weather briefing.

07:20:09 UTC

KCHO TAF
Charlottesville-Albemarle Airport
Charlottesville, Virginia, USA
KCHO 170534Z 1706/1806 00000KT P6SM SCT100 FM171700 22005KT P6SM VCTS BKN060CB FM180100 VRB03KT P6SM BKN090

Jun-17@
06:00 UTC

Jun-17 @ 06:00 UTC

Jun-17@
17:00 UTC

Jun-17 @ 17:00 UTC

KCHO 170534Z 1706/1806 00000KT P6SM SCT100
Cloud Levels
  • Scattered at 10,000' AGL

Jun-17@
17:00 UTC

Jun-17 @ 17:00 UTC

Jun-18@
01:00 UTC

Jun-18 @ 01:00 UTC

FM171700 22005KT P6SM VCTS BKN060CB

From

From Standard forecast or significant change

Wind
  • 220° at 5 KTS
Conditions
Area Thunderstorm
Cloud Levels
  • Broken at 6,000' AGL

Jun-18@
01:00 UTC

Jun-18 @ 01:00 UTC

Jun-18@
06:00 UTC

Jun-18 @ 06:00 UTC

FM180100 VRB03KT P6SM BKN090

From

From Standard forecast or significant change

Wind
  • Variable at 3 KTS
Cloud Levels
  • Broken at 9,000' AGL